createdAt,value
2022-08-20T00:02:18.963Z,20.99
2022-08-20T00:04:50.830Z,20.96
2022-08-20T00:07:22.464Z,20.95
2022-08-20T00:09:54.034Z,20.98
2022-08-20T00:12:25.803Z,21.05
2022-08-20T00:14:57.361Z,21.11
2022-08-20T00:17:36.481Z,21.13
2022-08-20T00:20:12.421Z,21.12
2022-08-20T00:22:44.070Z,21.11
2022-08-20T00:25:16.353Z,21.13
2022-08-20T00:27:47.961Z,21.12
2022-08-20T00:30:20.018Z,21.11
2022-08-20T00:32:56.385Z,21.10
2022-08-20T00:35:32.856Z,21.11
2022-08-20T00:38:05.085Z,21.07
2022-08-20T00:40:44.193Z,21.03
2022-08-20T00:43:39.225Z,21.01
2022-08-20T00:46:20.612Z,20.98
2022-08-20T00:48:55.831Z,20.96
2022-08-20T00:51:42.415Z,20.99
2022-08-20T00:54:19.848Z,20.97
2022-08-20T00:56:57.183Z,20.98
2022-08-20T00:59:32.492Z,20.97
2022-08-20T01:02:09.311Z,20.97
2022-08-20T01:04:46.313Z,20.94
2022-08-20T01:07:20.613Z,20.95
2022-08-20T01:09:58.889Z,20.92
2022-08-20T01:12:32.420Z,20.86
2022-08-20T01:15:05.830Z,20.81
2022-08-20T01:17:41.707Z,20.82
2022-08-20T01:20:17.584Z,20.84
2022-08-20T01:23:30.464Z,20.88
2022-08-20T01:26:23.017Z,20.89
2022-08-20T01:29:02.467Z,20.90
2022-08-20T01:31:37.792Z,20.95
2022-08-20T01:34:13.446Z,20.90
2022-08-20T01:36:53.385Z,20.89
2022-08-20T01:39:31.410Z,20.82
2022-08-20T01:42:27.734Z,20.82
2022-08-20T01:44:59.257Z,20.87
2022-08-20T01:47:36.406Z,20.90
2022-08-20T01:50:22.907Z,20.91
2022-08-20T01:53:06.795Z,20.90
2022-08-20T01:55:38.767Z,20.92
2022-08-20T01:58:10.471Z,20.91
2022-08-20T02:00:42.679Z,20.91
2022-08-20T02:03:14.313Z,20.86
2022-08-20T02:05:45.893Z,20.83
2022-08-20T02:08:17.558Z,20.82
2022-08-20T02:10:49.562Z,20.85
2022-08-20T02:13:21.940Z,20.90
2022-08-20T02:15:53.553Z,20.90
2022-08-20T02:18:25.213Z,20.92
2022-08-20T02:20:56.785Z,20.94
2022-08-20T02:23:28.401Z,20.91
2022-08-20T02:26:00.209Z,20.89
2022-08-20T02:28:31.808Z,20.85
2022-08-20T02:31:07.946Z,20.77
2022-08-20T02:33:39.760Z,20.72
2022-08-20T02:36:14.193Z,20.78
2022-08-20T02:38:46.721Z,20.83
2022-08-20T02:41:18.477Z,20.79
2022-08-20T02:43:51.312Z,20.79
2022-08-20T02:46:22.997Z,20.78
2022-08-20T02:48:55.613Z,20.80
2022-08-20T02:51:30.296Z,20.81
2022-08-20T02:54:02.326Z,20.79
2022-08-20T02:56:34.189Z,20.78
2022-08-20T02:59:06.638Z,20.82
2022-08-20T03:01:40.977Z,20.87
2022-08-20T03:04:12.513Z,20.85
2022-08-20T03:06:44.129Z,20.85
2022-08-20T03:09:15.765Z,20.86
2022-08-20T03:11:47.337Z,20.84
2022-08-20T03:14:19.559Z,20.85
2022-08-20T03:16:52.039Z,20.90
2022-08-20T03:19:23.657Z,20.86
2022-08-20T03:21:55.358Z,20.85
2022-08-20T03:24:27.067Z,20.85
2022-08-20T03:26:58.686Z,20.87
2022-08-20T03:29:30.403Z,20.84
2022-08-20T03:32:05.930Z,20.78
2022-08-20T03:34:39.210Z,20.71
2022-08-20T03:37:11.663Z,20.68
2022-08-20T03:39:43.425Z,20.67
2022-08-20T03:42:15.088Z,20.68
2022-08-20T03:44:48.402Z,20.69
2022-08-20T03:47:30.390Z,20.72
2022-08-20T03:50:05.321Z,20.77
2022-08-20T03:52:37.437Z,20.81
2022-08-20T03:55:09.801Z,20.72
2022-08-20T03:57:49.989Z,20.68
2022-08-20T04:00:34.030Z,20.66
2022-08-20T04:03:08.342Z,20.62
2022-08-20T04:05:41.774Z,20.61
2022-08-20T04:08:21.238Z,20.56
2022-08-20T04:10:54.180Z,20.56
2022-08-20T04:13:27.510Z,20.58
2022-08-20T04:16:02.036Z,20.62
2022-08-20T04:18:34.249Z,20.65
2022-08-20T04:21:05.956Z,20.61
2022-08-20T04:23:37.553Z,20.64
2022-08-20T04:26:09.711Z,20.67
2022-08-20T04:28:41.285Z,20.70
2022-08-20T04:31:14.214Z,20.68
2022-08-20T04:33:45.776Z,20.65
2022-08-20T04:36:17.380Z,20.58
2022-08-20T04:38:50.169Z,20.54
2022-08-20T04:41:24.262Z,20.54
2022-08-20T04:43:58.232Z,20.56
2022-08-20T04:46:31.749Z,20.58
2022-08-20T04:49:04.260Z,20.52
2022-08-20T04:51:36.023Z,20.62
2022-08-20T04:54:08.700Z,20.83
2022-08-20T04:56:40.363Z,21.11
2022-08-20T04:59:11.926Z,21.32
2022-08-20T05:01:43.563Z,21.35
2022-08-20T05:04:15.128Z,21.44
2022-08-20T05:06:49.558Z,21.45
2022-08-20T05:09:21.069Z,21.47
2022-08-20T05:11:52.673Z,21.49
2022-08-20T05:14:24.225Z,21.50
2022-08-20T05:16:57.582Z,21.64
2022-08-20T05:19:29.186Z,21.69
2022-08-20T05:22:01.665Z,21.69
2022-08-20T05:24:33.441Z,21.69
2022-08-20T05:27:08.322Z,21.79
2022-08-20T05:29:49.638Z,21.82
2022-08-20T05:32:23.765Z,21.79
2022-08-20T05:34:55.309Z,21.79
2022-08-20T05:37:27.738Z,21.87
2022-08-20T05:40:13.139Z,21.96
2022-08-20T05:42:47.033Z,21.96
2022-08-20T05:45:18.732Z,21.94
2022-08-20T05:47:56.437Z,21.91
2022-08-20T05:50:28.209Z,21.85
2022-08-20T05:53:01.480Z,21.88
2022-08-20T05:55:33.506Z,21.92
2022-08-20T05:58:07.912Z,21.95
2022-08-20T06:00:39.436Z,21.93
2022-08-20T06:03:29.854Z,21.94
2022-08-20T06:06:01.566Z,21.94
2022-08-20T06:08:36.855Z,21.99
2022-08-20T06:11:08.870Z,21.98
2022-08-20T06:13:40.499Z,21.92
2022-08-20T06:16:12.323Z,21.84
2022-08-20T06:18:44.346Z,21.76
2022-08-20T06:21:16.181Z,21.79
2022-08-20T06:23:57.046Z,21.81
2022-08-20T06:26:31.122Z,21.77
2022-08-20T06:29:04.693Z,21.78
2022-08-20T06:31:39.974Z,21.71
2022-08-20T06:34:11.616Z,21.79
2022-08-20T06:36:46.352Z,22.04
2022-08-20T06:39:18.017Z,22.25
2022-08-20T06:41:51.484Z,22.36
2022-08-20T06:44:24.713Z,22.53
2022-08-20T06:47:00.967Z,22.60
2022-08-20T06:49:36.809Z,22.62
2022-08-20T06:52:08.648Z,22.60
2022-08-20T06:54:44.984Z,22.55
2022-08-20T06:57:17.329Z,22.57
2022-08-20T06:59:53.987Z,22.59
2022-08-20T07:02:29.176Z,22.62
2022-08-20T07:05:02.392Z,22.59
2022-08-20T07:07:34.555Z,22.56
2022-08-20T07:10:09.426Z,22.62
2022-08-20T07:12:41.016Z,22.70
2022-08-20T07:15:16.101Z,22.73
2022-08-20T07:18:01.346Z,22.71
2022-08-20T07:20:36.307Z,22.66
2022-08-20T07:23:08.481Z,22.52
2022-08-20T07:25:43.337Z,22.53
2022-08-20T07:28:23.529Z,22.62
2022-08-20T07:31:15.817Z,22.64
2022-08-20T07:33:50.370Z,22.78
2022-08-20T07:36:23.245Z,22.97
2022-08-20T07:38:54.978Z,22.89
2022-08-20T07:41:28.717Z,22.54
2022-08-20T07:44:00.271Z,22.49
2022-08-20T07:46:32.395Z,22.66
2022-08-20T07:49:05.392Z,22.69
2022-08-20T07:51:37.404Z,22.63
2022-08-20T07:54:08.977Z,22.57
2022-08-20T07:56:40.564Z,22.55
2022-08-20T07:59:13.849Z,22.61
2022-08-20T08:01:45.503Z,22.55
2022-08-20T08:04:17.156Z,22.55
2022-08-20T08:06:48.814Z,22.46
2022-08-20T08:09:20.381Z,22.50
2022-08-20T08:11:52.449Z,22.55
2022-08-20T08:14:29.345Z,22.61
2022-08-20T08:17:04.419Z,22.64
2022-08-20T08:19:43.105Z,22.64
2022-08-20T08:22:17.570Z,22.62
2022-08-20T08:24:57.336Z,22.52
2022-08-20T08:27:32.658Z,22.53
2022-08-20T08:30:05.335Z,22.28
2022-08-20T08:32:37.614Z,22.35
2022-08-20T08:35:09.458Z,22.46
2022-08-20T08:37:41.345Z,22.47
2022-08-20T08:40:13.122Z,22.49
2022-08-20T08:42:48.627Z,22.26
2022-08-20T08:45:20.463Z,22.21
2022-08-20T08:47:52.159Z,22.23
2022-08-20T08:50:49.902Z,22.27
2022-08-20T08:53:25.004Z,22.31
2022-08-20T08:55:56.644Z,22.40
2022-08-20T08:58:28.344Z,22.38
2022-08-20T09:01:08.051Z,22.29
2022-08-20T09:03:44.768Z,22.28
2022-08-20T09:06:22.773Z,22.32
2022-08-20T09:09:02.528Z,22.30
2022-08-20T09:11:47.282Z,22.28
2022-08-20T09:14:19.309Z,22.21
2022-08-20T09:16:52.601Z,22.02
2022-08-20T09:19:25.203Z,22.03
2022-08-20T09:21:57.020Z,22.13
2022-08-20T09:24:28.681Z,22.04
2022-08-20T09:27:00.257Z,22.02
2022-08-20T09:29:33.011Z,22.06
2022-08-20T09:32:27.709Z,22.14
2022-08-20T09:34:59.929Z,22.04
2022-08-20T09:37:37.232Z,21.94
2022-08-20T09:40:10.008Z,21.77
2022-08-20T09:42:41.965Z,21.62
2022-08-20T09:45:14.869Z,21.63
2022-08-20T09:47:54.987Z,21.69
2022-08-20T09:50:48.297Z,21.55
2022-08-20T09:53:21.924Z,21.58
2022-08-20T09:55:55.684Z,21.67
2022-08-20T09:58:51.042Z,21.70
2022-08-20T10:01:23.207Z,21.74
2022-08-20T10:03:54.833Z,21.63
2022-08-20T10:06:26.601Z,21.61
2022-08-20T10:08:58.425Z,21.57
2022-08-20T10:11:30.109Z,21.47
2022-08-20T10:14:01.854Z,21.55
2022-08-20T10:16:33.500Z,21.57
2022-08-20T10:19:05.534Z,21.54
2022-08-20T10:21:39.069Z,21.33
2022-08-20T10:24:10.982Z,21.21
2022-08-20T10:26:42.627Z,21.12
2022-08-20T10:29:15.205Z,21.07
2022-08-20T10:31:46.877Z,21.15
2022-08-20T10:34:18.661Z,21.07
2022-08-20T10:36:50.272Z,21.16
2022-08-20T10:39:21.828Z,21.21
2022-08-20T10:41:53.404Z,21.22
2022-08-20T10:44:25.030Z,21.18
2022-08-20T10:46:57.308Z,21.09
2022-08-20T10:49:34.322Z,21.13
2022-08-20T10:52:06.216Z,21.08
2022-08-20T10:54:42.030Z,21.16
2022-08-20T10:57:17.491Z,21.27
2022-08-20T10:59:51.157Z,21.30
2022-08-20T11:02:23.482Z,21.22
2022-08-20T11:04:56.341Z,21.18
2022-08-20T11:07:55.565Z,21.10
2022-08-20T11:10:26.220Z,21.15
2022-08-20T11:12:58.176Z,21.03
2022-08-20T11:15:30.091Z,21.01
2022-08-20T11:18:01.857Z,20.79
2022-08-20T11:20:33.962Z,20.81
2022-08-20T11:23:05.584Z,21.00
2022-08-20T11:25:37.208Z,21.10
2022-08-20T11:28:08.914Z,21.17
2022-08-20T11:30:41.144Z,21.18
2022-08-20T11:33:12.896Z,21.18
2022-08-20T11:35:49.062Z,21.13
2022-08-20T11:38:24.709Z,21.10
2022-08-20T11:40:56.366Z,21.01
2022-08-20T11:43:28.009Z,20.92
2022-08-20T11:45:59.615Z,20.70
2022-08-20T11:48:31.192Z,20.59
2022-08-20T11:51:02.796Z,20.63
2022-08-20T11:53:34.393Z,20.66
2022-08-20T11:56:09.982Z,20.71
2022-08-20T11:58:46.087Z,20.70
2022-08-20T12:01:17.692Z,20.64
2022-08-20T12:03:49.303Z,20.58
2022-08-20T12:06:20.891Z,20.56
2022-08-20T12:08:52.487Z,20.50
2022-08-20T12:11:24.096Z,20.46
2022-08-20T12:13:55.843Z,20.46
2022-08-20T12:16:27.750Z,20.51
2022-08-20T12:19:01.989Z,20.56
2022-08-20T12:21:33.628Z,20.48
2022-08-20T12:24:05.496Z,20.48
2022-08-20T12:26:37.133Z,20.58
2022-08-20T12:29:08.784Z,20.71
2022-08-20T12:31:40.365Z,20.76
2022-08-20T12:34:11.990Z,20.64
2022-08-20T12:36:48.017Z,20.59
2022-08-20T12:39:19.612Z,20.42
2022-08-20T12:41:51.226Z,20.41
2022-08-20T12:44:22.855Z,20.44
2022-08-20T12:47:06.413Z,20.57
2022-08-20T12:49:39.301Z,20.61
2022-08-20T12:52:15.200Z,20.55
2022-08-20T12:54:47.550Z,20.48
2022-08-20T12:57:26.025Z,20.30
2022-08-20T13:00:00.412Z,20.20
2022-08-20T13:02:32.256Z,20.34
2022-08-20T13:05:05.504Z,20.41
2022-08-20T13:07:38.970Z,20.37
2022-08-20T13:10:14.799Z,20.36
2022-08-20T13:12:46.601Z,20.42
2022-08-20T13:15:18.657Z,20.47
2022-08-20T13:17:54.884Z,20.40
2022-08-20T13:20:34.062Z,20.34
2022-08-20T13:23:06.534Z,20.38
2022-08-20T13:25:38.121Z,20.42
2022-08-20T13:28:09.708Z,20.35
2022-08-20T13:30:41.523Z,20.34
2022-08-20T13:33:13.143Z,20.38
2022-08-20T13:35:44.772Z,20.40
2022-08-20T13:38:16.597Z,20.48
2022-08-20T13:40:48.865Z,20.51
2022-08-20T13:43:20.666Z,20.57
2022-08-20T13:45:52.319Z,20.55
2022-08-20T13:48:23.933Z,20.59
2022-08-20T13:50:55.557Z,20.54
2022-08-20T13:53:27.160Z,20.48
2022-08-20T13:55:58.812Z,20.40
2022-08-20T13:58:30.458Z,20.41
2022-08-20T14:01:02.093Z,20.44
2022-08-20T14:03:35.087Z,20.42
2022-08-20T14:06:09.662Z,20.35
2022-08-20T14:08:41.319Z,20.46
2022-08-20T14:11:13.952Z,20.50
2022-08-20T14:13:49.363Z,20.55
2022-08-20T14:16:27.588Z,20.61
2022-08-20T14:19:00.237Z,20.60
2022-08-20T14:21:31.850Z,20.68
2022-08-20T14:24:03.774Z,20.60
2022-08-20T14:26:36.386Z,20.54
2022-08-20T14:29:08.007Z,20.54
2022-08-20T14:31:39.602Z,20.54
2022-08-20T14:34:11.170Z,20.62
2022-08-20T14:36:42.801Z,20.72
2022-08-20T14:39:17.359Z,20.88
2022-08-20T14:41:51.925Z,20.85
2022-08-20T14:44:23.501Z,20.83
2022-08-20T14:46:55.742Z,20.87
2022-08-20T14:49:27.339Z,20.76
2022-08-20T14:51:58.972Z,20.82
2022-08-20T14:54:30.692Z,20.78
2022-08-20T14:57:02.885Z,20.75
2022-08-20T14:59:34.918Z,20.67
2022-08-20T15:02:09.689Z,20.62
2022-08-20T15:04:44.482Z,20.53
2022-08-20T15:07:29.509Z,20.52
2022-08-20T15:10:05.783Z,20.59
2022-08-20T15:12:37.673Z,20.67
2022-08-20T15:15:16.103Z,20.62
2022-08-20T15:17:50.923Z,20.62
2022-08-20T15:20:26.244Z,20.66
2022-08-20T15:22:58.364Z,20.69
2022-08-20T15:25:36.443Z,20.73
2022-08-20T15:28:10.243Z,20.72
2022-08-20T15:30:42.208Z,20.71
2022-08-20T15:33:14.992Z,20.68
2022-08-20T15:35:46.637Z,20.67
2022-08-20T15:38:18.322Z,20.69
2022-08-20T15:40:49.902Z,20.70
2022-08-20T15:43:24.281Z,20.74
2022-08-20T15:45:56.814Z,20.74
2022-08-20T15:48:47.642Z,20.79
2022-08-20T15:51:54.518Z,20.85
2022-08-20T15:54:27.655Z,20.79
2022-08-20T15:57:17.674Z,20.81
2022-08-20T16:00:14.009Z,20.91
2022-08-20T16:03:17.664Z,20.98
2022-08-20T16:06:06.064Z,20.95
2022-08-20T16:08:56.906Z,20.95
2022-08-20T16:11:31.329Z,20.97
2022-08-20T16:14:35.036Z,21.00
2022-08-20T16:17:11.308Z,21.00
2022-08-20T16:20:01.879Z,21.08
2022-08-20T16:22:33.841Z,21.09
2022-08-20T16:25:05.813Z,21.06
2022-08-20T16:27:43.592Z,20.87
2022-08-20T16:30:40.766Z,20.81
2022-08-20T16:33:18.405Z,20.87
2022-08-20T16:36:10.914Z,20.95
2022-08-20T16:38:56.873Z,21.05
2022-08-20T16:41:31.207Z,21.17
2022-08-20T16:44:05.144Z,21.15
2022-08-20T16:46:50.327Z,21.12
2022-08-20T16:49:23.623Z,21.12
2022-08-20T16:51:55.345Z,21.14
2022-08-20T16:54:30.793Z,21.09
2022-08-20T16:57:05.828Z,21.06
2022-08-20T17:00:14.313Z,21.05
2022-08-20T17:02:56.782Z,21.05
2022-08-20T17:05:42.517Z,21.07
2022-08-20T17:08:22.930Z,21.14
2022-08-20T17:11:25.135Z,21.16
2022-08-20T17:14:16.197Z,21.16
2022-08-20T17:16:50.958Z,21.14
2022-08-20T17:19:32.417Z,21.15
2022-08-20T17:22:12.741Z,21.15
2022-08-20T17:24:44.386Z,21.20
2022-08-20T17:27:33.332Z,21.17
2022-08-20T17:30:37.356Z,21.10
2022-08-20T17:33:29.477Z,21.03
2022-08-20T17:36:07.005Z,21.04
2022-08-20T17:38:48.301Z,21.01
2022-08-20T17:41:34.015Z,21.02
2022-08-20T17:44:09.061Z,21.00
2022-08-20T17:46:44.209Z,20.98
2022-08-20T17:49:33.541Z,20.96
2022-08-20T17:52:16.022Z,20.95
2022-08-20T17:54:49.756Z,20.89
2022-08-20T17:57:25.593Z,20.89
2022-08-20T18:00:11.978Z,20.91
2022-08-20T18:02:44.207Z,20.89
2022-08-20T18:05:19.783Z,20.84
2022-08-20T18:08:23.156Z,20.88
2022-08-20T18:11:13.653Z,20.83
2022-08-20T18:14:12.886Z,20.79
2022-08-20T18:16:49.153Z,20.81
2022-08-20T18:19:46.705Z,20.82
2022-08-20T18:22:29.025Z,20.83
2022-08-20T18:25:22.461Z,20.80
2022-08-20T18:28:02.167Z,20.73
2022-08-20T18:30:34.224Z,20.62
2022-08-20T18:33:09.159Z,20.54
2022-08-20T18:35:45.590Z,20.57
2022-08-20T18:38:24.007Z,20.61
2022-08-20T18:41:23.967Z,20.60
2022-08-20T18:44:14.182Z,20.62
2022-08-20T18:46:57.514Z,20.60
2022-08-20T18:49:35.792Z,20.61
2022-08-20T18:52:22.765Z,20.65
2022-08-20T18:55:00.533Z,20.66
2022-08-20T18:57:41.196Z,20.77
2022-08-20T19:00:19.410Z,20.77
2022-08-20T19:03:06.223Z,20.69
2022-08-20T19:05:46.562Z,20.65
2022-08-20T19:08:30.026Z,20.63
2022-08-20T19:11:14.689Z,20.60
2022-08-20T19:13:46.213Z,20.46
2022-08-20T19:16:39.185Z,20.46
2022-08-20T19:19:21.893Z,20.42
2022-08-20T19:21:55.529Z,20.42
2022-08-20T19:24:31.270Z,20.36
2022-08-20T19:27:06.476Z,20.37
2022-08-20T19:29:46.110Z,20.41
2022-08-20T19:32:27.776Z,20.35
2022-08-20T19:35:04.179Z,20.28
2022-08-20T19:37:51.620Z,20.28
2022-08-20T19:40:30.646Z,20.36
2022-08-20T19:43:06.169Z,20.39
2022-08-20T19:45:52.477Z,20.42
2022-08-20T19:48:48.323Z,20.36
2022-08-20T19:52:04.904Z,20.37
2022-08-20T19:54:47.482Z,20.42
2022-08-20T19:57:20.621Z,20.46
2022-08-20T20:00:01.794Z,20.34
2022-08-20T20:02:34.915Z,20.35
2022-08-20T20:05:08.505Z,20.43
2022-08-20T20:07:47.595Z,20.41
2022-08-20T20:10:32.675Z,20.35
2022-08-20T20:13:09.675Z,20.33
2022-08-20T20:15:42.441Z,20.39
2022-08-20T20:18:14.171Z,20.39
2022-08-20T20:20:57.270Z,20.40
2022-08-20T20:23:45.674Z,20.37
2022-08-20T20:26:20.277Z,20.33
2022-08-20T20:29:21.807Z,20.33
2022-08-20T20:31:57.739Z,20.33
2022-08-20T20:34:36.662Z,20.38
2022-08-20T20:37:48.781Z,20.40
2022-08-20T20:40:26.347Z,20.39
2022-08-20T20:43:08.452Z,20.35
2022-08-20T20:45:45.650Z,20.26
2022-08-20T20:48:23.362Z,20.19
2022-08-20T20:50:56.434Z,20.21
2022-08-20T20:53:52.995Z,20.22
2022-08-20T20:56:30.734Z,20.25
2022-08-20T20:59:06.803Z,20.20
2022-08-20T21:01:49.478Z,20.20
2022-08-20T21:04:26.286Z,20.23
2022-08-20T21:07:04.778Z,20.13
2022-08-20T21:09:38.487Z,20.18
2022-08-20T21:12:11.816Z,20.28
2022-08-20T21:14:43.681Z,20.20
2022-08-20T21:17:21.003Z,20.10
2022-08-20T21:19:52.846Z,20.10
2022-08-20T21:22:24.413Z,19.99
2022-08-20T21:24:56.023Z,19.92
2022-08-20T21:27:28.266Z,19.89
2022-08-20T21:29:59.913Z,19.86
2022-08-20T21:32:31.541Z,19.87
2022-08-20T21:35:03.533Z,19.92
2022-08-20T21:37:35.421Z,20.08
2022-08-20T21:40:12.004Z,20.09
2022-08-20T21:42:44.289Z,20.07
2022-08-20T21:45:18.483Z,20.08
2022-08-20T21:47:51.058Z,20.05
2022-08-20T21:50:22.890Z,19.97
2022-08-20T21:52:59.418Z,19.89
2022-08-20T21:55:39.216Z,19.89
2022-08-20T21:58:12.080Z,19.93
2022-08-20T22:00:52.638Z,19.95
2022-08-20T22:03:28.007Z,19.97
2022-08-20T22:06:01.690Z,19.96
2022-08-20T22:08:33.670Z,19.95
2022-08-20T22:11:08.135Z,19.94
2022-08-20T22:13:40.336Z,19.90
2022-08-20T22:16:16.093Z,19.91
2022-08-20T22:18:48.797Z,19.94
2022-08-20T22:21:26.769Z,19.93
2022-08-20T22:24:01.424Z,19.91
2022-08-20T22:26:34.857Z,19.89
2022-08-20T22:29:08.396Z,19.89
2022-08-20T22:31:43.062Z,19.89
2022-08-20T22:34:18.491Z,19.89
2022-08-20T22:36:52.917Z,19.87
2022-08-20T22:39:24.369Z,19.84
2022-08-20T22:41:56.196Z,19.85
2022-08-20T22:44:27.788Z,19.88
2022-08-20T22:47:04.839Z,19.86
2022-08-20T22:49:39.785Z,19.86
2022-08-20T22:52:12.057Z,19.87
2022-08-20T22:54:45.611Z,19.89
2022-08-20T22:57:20.446Z,19.87
2022-08-20T22:59:56.079Z,19.85
2022-08-20T23:02:27.740Z,19.84
2022-08-20T23:04:59.459Z,19.84
2022-08-20T23:07:31.334Z,19.84
2022-08-20T23:10:04.405Z,19.83
2022-08-20T23:12:37.224Z,19.84
2022-08-20T23:15:09.252Z,19.85
2022-08-20T23:17:41.386Z,19.85
2022-08-20T23:20:17.682Z,19.88
2022-08-20T23:22:49.255Z,19.92
2022-08-20T23:25:23.055Z,19.94
2022-08-20T23:28:03.479Z,19.95
2022-08-20T23:30:36.125Z,19.91
2022-08-20T23:33:08.265Z,19.88
2022-08-20T23:35:40.790Z,19.88
2022-08-20T23:38:13.648Z,19.85
2022-08-20T23:40:45.291Z,19.83
2022-08-20T23:43:18.687Z,19.80
2022-08-20T23:45:50.601Z,19.80
2022-08-20T23:48:22.222Z,19.75
2022-08-20T23:50:53.774Z,19.56
2022-08-20T23:53:25.383Z,19.52
2022-08-20T23:55:57.284Z,19.45
2022-08-20T23:58:29.029Z,19.39
